Time;durP1;ratioP1;P1;durP2;ratioP2;P2;SDS_P1;SDS_P2;PMS_P1;PMS_P2;Temp;Humidity;BMP_temperature;BMP_pressure;BME280_temperature;BME280_humidity;BME280_pressure;Samples;Min_cycle;Max_cycle;Signal;HPM_P1;HPM_P2
2020/12/06 00:01:48;;;;;;;27.30;16.00;;;4.80;1.00;;;;;;4976820;28;20645;-58
2020/12/06 00:04:19;;;;;;;22.77;15.87;;;4.40;1.00;;;;;;4977512;28;20177;-63
2020/12/06 00:06:46;;;;;;;26.38;16.30;;;3.80;99.90;;;;;;4977607;28;20180;-60
2020/12/06 00:09:11;;;;;;;24.60;16.80;;;3.50;1.00;;;;;;4977807;28;20191;-63
2020/12/06 00:11:37;;;;;;;24.97;16.90;;;4.00;1.00;;;;;;4977566;28;20614;-63
2020/12/06 00:14:03;;;;;;;28.17;17.90;;;3.90;1.00;;;;;;4977502;28;20610;-57
2020/12/06 00:16:28;;;;;;;25.43;16.80;;;3.90;1.00;;;;;;4978244;28;20216;-63
2020/12/06 00:18:54;;;;;;;22.33;16.77;;;3.80;1.00;;;;;;4977491;28;20518;-63
2020/12/06 00:21:22;;;;;;;19.90;15.37;;;3.80;1.00;;;;;;4977863;28;20242;-61
2020/12/06 00:23:47;;;;;;;20.55;14.15;;;3.40;1.00;;;;;;4976292;28;20438;-61
2020/12/06 00:26:20;;;;;;;28.30;15.70;;;3.00;1.00;;;;;;4977842;28;20192;-58
2020/12/06 00:28:46;;;;;;;26.83;18.20;;;3.10;1.00;;;;;;4977581;28;20806;-62
2020/12/06 00:31:11;;;;;;;23.23;15.17;;;3.10;1.00;;;;;;4976184;28;20265;-58
2020/12/06 00:33:37;;;;;;;24.47;16.07;;;3.10;20.80;;;;;;4976819;28;20207;-58
2020/12/06 00:36:03;;;;;;;25.47;17.40;;;3.10;35.70;;;;;;4976513;28;20266;-59
2020/12/06 00:38:28;;;;;;;21.70;15.97;;;3.20;56.50;;;;;;4977039;28;20192;-62
2020/12/06 00:40:54;;;;;;;27.90;17.80;;;3.60;87.20;;;;;;4976427;28;20275;-61
2020/12/06 00:43:20;;;;;;;24.93;17.50;;;4.20;98.20;;;;;;4976918;28;20427;-58
2020/12/06 00:45:45;;;;;;;27.63;18.40;;;4.60;96.20;;;;;;4977045;28;20176;-58
2020/12/06 00:48:11;;;;;;;25.57;16.83;;;4.90;53.80;;;;;;4975897;28;20192;-62
2020/12/06 00:50:36;;;;;;;26.00;16.53;;;4.90;1.00;;;;;;4976813;28;20184;-61
2020/12/06 00:53:02;;;;;;;23.60;17.17;;;4.10;1.00;;;;;;4977025;28;20180;-61
2020/12/06 00:55:27;;;;;;;26.33;17.33;;;3.50;1.00;;;;;;4976802;28;20187;-61
2020/12/06 00:57:53;;;;;;;26.90;16.87;;;3.10;1.00;;;;;;4976794;28;20200;-62
2020/12/06 01:00:18;;;;;;;26.27;17.53;;;3.00;1.00;;;;;;4976736;28;20275;-57
2020/12/06 01:02:44;;;;;;;24.90;15.73;;;3.00;49.70;;;;;;4976583;28;20180;-62
2020/12/06 01:05:10;;;;;;;24.40;17.87;;;3.30;82.80;;;;;;4975447;28;20184;-58
2020/12/06 01:07:39;;;;;;;24.80;17.80;;;3.40;92.40;;;;;;4976526;28;20184;-57
2020/12/06 01:10:10;;;;;;;23.52;17.15;;;3.30;89.70;;;;;;4976731;28;20188;-57
2020/12/06 01:12:42;;;;;;;23.85;17.52;;;3.30;91.80;;;;;;4976494;28;20211;-57
2020/12/06 01:15:09;;;;;;;24.17;18.45;;;3.40;93.30;;;;;;4976244;28;20184;-57
2020/12/06 01:17:35;;;;;;;27.48;15.90;;;3.50;94.80;;;;;;4976297;28;20199;-57
2020/12/06 01:20:01;;;;;;;26.43;16.57;;;3.50;82.00;;;;;;4976831;28;20176;-58
2020/12/06 01:22:26;;;;;;;32.10;17.83;;;3.30;76.80;;;;;;4976624;28;20769;-57
2020/12/06 01:24:52;;;;;;;28.37;19.27;;;3.30;91.00;;;;;;4976306;28;20243;-57
2020/12/06 01:27:17;;;;;;;25.80;18.00;;;3.50;98.00;;;;;;4976627;28;20180;-57
2020/12/06 01:29:44;;;;;;;30.67;18.20;;;3.70;99.40;;;;;;4976385;28;20179;-57
2020/12/06 01:32:09;;;;;;;24.98;16.00;;;3.90;99.90;;;;;;4976393;28;20208;-61
2020/12/06 01:34:35;;;;;;;27.00;17.80;;;3.70;69.80;;;;;;4975970;28;20191;-61
2020/12/06 01:37:00;;;;;;;26.77;17.90;;;3.60;55.80;;;;;;4975345;28;20219;-61
2020/12/06 01:39:26;;;;;;;24.67;16.07;;;3.90;83.50;;;;;;4976596;28;20247;-62
2020/12/06 01:41:56;;;;;;;24.17;16.07;;;4.40;89.60;;;;;;4975257;28;20191;-59
2020/12/06 01:44:22;;;;;;;25.05;17.00;;;4.60;49.00;;;;;;4976227;28;20427;-60
2020/12/06 01:46:50;;;;;;;27.17;17.30;;;4.70;1.00;;;;;;4976261;28;20187;-62
2020/12/06 01:49:17;;;;;;;24.50;16.77;;;4.60;1.00;;;;;;4975829;28;20255;-58
2020/12/06 01:51:44;;;;;;;25.65;17.67;;;4.30;1.00;;;;;;4975584;28;20204;-58
2020/12/06 01:54:10;;;;;;;30.63;17.85;;;4.10;1.00;;;;;;4974425;28;20188;-58
2020/12/06 01:56:35;;;;;;;29.00;19.07;;;4.00;1.00;;;;;;4975738;28;20199;-61
2020/12/06 01:59:01;;;;;;;27.20;18.23;;;3.90;1.00;;;;;;4975609;28;20238;-61
2020/12/06 02:01:26;;;;;;;23.57;18.27;;;3.90;1.00;;;;;;4975750;28;20184;-61
2020/12/06 02:03:53;;;;;;;28.17;18.00;;;4.10;1.00;;;;;;4975367;28;20180;-62
2020/12/06 02:06:19;;;;;;;26.10;17.83;;;4.20;1.00;;;;;;4975491;28;20250;-57
2020/12/06 02:08:47;;;;;;;24.00;16.27;;;4.20;1.00;;;;;;4975491;28;20183;-57
2020/12/06 02:11:28;;;;;;;25.60;16.90;;;4.10;1.00;;;;;;4975386;28;20278;-57
2020/12/06 02:13:53;;;;;;;26.00;17.35;;;3.90;1.00;;;;;;4975390;28;20177;-60
2020/12/06 02:16:19;;;;;;;27.73;17.67;;;4.00;1.00;;;;;;4975488;28;20184;-60
2020/12/06 02:18:44;;;;;;;27.50;18.03;;;4.10;1.00;;;;;;4975428;28;20486;-57
2020/12/06 02:21:10;;;;;;;27.33;17.83;;;4.40;1.00;;;;;;4975014;28;20274;-57
2020/12/06 02:23:35;;;;;;;28.67;16.50;;;4.40;1.00;;;;;;4975031;28;20188;-57
2020/12/06 02:26:01;;;;;;;28.67;19.23;;;4.50;1.00;;;;;;4974493;28;20201;-57
2020/12/06 02:28:27;;;;;;;28.50;18.53;;;4.50;1.00;;;;;;4975116;28;20196;-58
2020/12/06 02:30:52;;;;;;;29.63;18.70;;;4.40;99.90;;;;;;4975235;28;20525;-58
2020/12/06 02:33:18;;;;;;;27.77;18.37;;;4.10;99.90;;;;;;4975220;28;20202;-59
2020/12/06 02:35:43;;;;;;;27.27;17.80;;;4.10;99.90;;;;;;4974916;28;20180;-58
2020/12/06 02:38:09;;;;;;;21.53;16.13;;;4.20;1.00;;;;;;4975078;28;20191;-61
2020/12/06 02:40:35;;;;;;;24.23;17.88;;;4.50;1.00;;;;;;4974037;28;20633;-61
2020/12/06 02:43:00;;;;;;;24.50;17.30;;;4.50;1.00;;;;;;4975061;28;20274;-60
2020/12/06 02:45:26;;;;;;;29.20;19.60;;;4.20;99.90;;;;;;4974939;28;20534;-61
2020/12/06 02:47:51;;;;;;;26.73;18.47;;;4.10;1.00;;;;;;4975070;28;20266;-57
2020/12/06 02:50:17;;;;;;;26.70;17.27;;;4.20;1.00;;;;;;4975180;28;20501;-61
2020/12/06 02:52:42;;;;;;;27.50;15.67;;;4.60;1.00;;;;;;4974969;28;20277;-62
2020/12/06 02:55:08;;;;;;;23.10;17.10;;;4.80;99.90;;;;;;4974643;28;20510;-63
2020/12/06 02:57:33;;;;;;;25.30;15.60;;;4.90;99.90;;;;;;4974681;28;20254;-62
2020/12/06 02:59:59;;;;;;;24.80;17.30;;;4.70;99.90;;;;;;4973839;28;20206;-61
2020/12/06 03:02:24;;;;;;;28.70;17.60;;;4.10;99.90;;;;;;4974605;28;20276;-61
2020/12/06 03:04:50;;;;;;;24.53;16.60;;;4.30;99.90;;;;;;4974645;28;20183;-61
2020/12/06 03:07:16;;;;;;;23.73;15.80;;;4.60;1.00;;;;;;4973931;28;20188;-62
2020/12/06 03:09:41;;;;;;;26.57;15.87;;;4.40;99.90;;;;;;4974859;28;20188;-58
2020/12/06 03:12:06;;;;;;;21.53;15.57;;;3.90;99.90;;;;;;4974822;28;20207;-58
2020/12/06 03:14:32;;;;;;;27.10;18.47;;;3.70;1.00;;;;;;4974525;28;20188;-58
2020/12/06 03:16:57;;;;;;;27.13;18.37;;;4.10;1.00;;;;;;4974958;28;20176;-59
2020/12/06 03:19:23;;;;;;;26.90;17.67;;;4.50;1.00;;;;;;4974638;28;20271;-59
2020/12/06 03:21:49;;;;;;;29.57;18.57;;;4.60;1.00;;;;;;4974667;28;20249;-61
2020/12/06 03:24:14;;;;;;;25.20;17.03;;;4.70;1.00;;;;;;4974278;28;20514;-62
2020/12/06 03:26:40;;;;;;;22.10;16.07;;;5.00;1.00;;;;;;4974760;28;20643;-59
2020/12/06 03:29:05;;;;;;;27.20;17.67;;;5.10;99.90;;;;;;4974770;28;20212;-59
2020/12/06 03:31:31;;;;;;;25.57;19.13;;;5.10;99.90;;;;;;4974675;28;20519;-59
2020/12/06 03:33:56;;;;;;;27.33;17.90;;;5.20;99.90;;;;;;4974076;28;20184;-59
2020/12/06 03:36:21;;;;;;;29.30;16.73;;;4.70;23.20;;;;;;4978325;28;20211;-57
2020/12/06 03:38:47;;;;;;;25.63;16.57;;;4.50;99.90;;;;;;4978110;28;20176;-57
2020/12/06 03:41:12;;;;;;;23.27;16.17;;;4.10;99.90;;;;;;4978033;28;20514;-57
2020/12/06 03:43:38;;;;;;;28.37;18.00;;;4.20;1.00;;;;;;4977883;28;20272;-57
2020/12/06 03:46:04;;;;;;;21.37;13.40;;;4.10;1.00;;;;;;4977987;28;20211;-57
2020/12/06 03:48:29;;;;;;;21.07;15.30;;;4.00;1.00;;;;;;4977862;28;20763;-57
2020/12/06 03:50:55;;;;;;;25.93;16.27;;;4.10;1.00;;;;;;4978493;28;20260;-62
2020/12/06 03:53:20;;;;;;;24.20;16.47;;;4.20;1.00;;;;;;4977463;28;20186;-57
2020/12/06 03:55:46;;;;;;;26.03;18.00;;;4.50;1.00;;;;;;4977769;28;20664;-57
2020/12/06 03:58:11;;;;;;;28.50;16.70;;;4.90;1.00;;;;;;4977795;28;20227;-57
2020/12/06 04:00:37;;;;;;;23.40;17.00;;;4.80;99.90;;;;;;4977885;28;20180;-57
2020/12/06 04:03:02;;;;;;;28.17;18.13;;;4.90;99.90;;;;;;4977734;28;20195;-58
2020/12/06 04:05:28;;;;;;;26.37;17.30;;;4.90;99.90;;;;;;4977684;28;20609;-57
2020/12/06 04:07:53;;;;;;;25.00;16.53;;;4.80;99.90;;;;;;4976590;28;20180;-59
2020/12/06 04:10:19;;;;;;;25.57;17.80;;;4.90;99.90;;;;;;4977689;28;20180;-58
2020/12/06 04:12:45;;;;;;;26.40;18.27;;;4.60;99.90;;;;;;4977828;28;20545;-58
2020/12/06 04:15:11;;;;;;;25.75;17.15;;;4.70;99.90;;;;;;4977474;28;20474;-60
2020/12/06 04:17:38;;;;;;;25.00;16.70;;;5.10;99.90;;;;;;4977499;28;20219;-61
2020/12/06 04:20:05;;;;;;;26.77;16.30;;;5.00;99.90;;;;;;4978300;28;20180;-58
2020/12/06 04:22:30;;;;;;;25.67;17.77;;;5.30;99.90;;;;;;4978593;28;20653;-58
2020/12/06 04:24:56;;;;;;;20.30;14.93;;;4.70;99.90;;;;;;4977998;28;20188;-60
2020/12/06 04:27:21;;;;;;;24.90;16.10;;;4.80;99.90;;;;;;4977268;28;20243;-60
2020/12/06 04:29:47;;;;;;;25.40;15.70;;;4.60;99.90;;;;;;4977358;28;20198;-61
2020/12/06 04:32:12;;;;;;;26.47;15.70;;;4.90;1.00;;;;;;4977153;28;20223;-61
2020/12/06 04:34:38;;;;;;;25.50;17.00;;;5.00;99.90;;;;;;4976988;28;20219;-61
2020/12/06 04:37:07;;;;;;;26.47;17.60;;;5.00;99.90;;;;;;4976127;28;20219;-61
2020/12/06 04:39:33;;;;;;;29.27;17.42;;;4.70;99.90;;;;;;4976020;28;20188;-61
2020/12/06 04:42:03;;;;;;;29.40;17.87;;;4.40;99.90;;;;;;4977184;28;20323;-60
2020/12/06 04:44:29;;;;;;;27.65;18.42;;;4.60;1.00;;;;;;4976348;28;20926;-58
2020/12/06 04:47:00;;;;;;;28.53;18.23;;;4.30;1.00;;;;;;4976946;28;20180;-57
2020/12/06 04:49:44;;;;;;;31.17;17.92;;;4.30;1.00;;;;;;4977168;28;20431;-57
2020/12/06 04:52:21;;;;;;;31.45;19.13;;;4.30;1.00;;;;;;4976881;28;20218;-57
2020/12/06 04:54:58;;;;;;;28.67;17.25;;;4.20;1.00;;;;;;4976816;28;20187;-57
2020/12/06 04:57:23;;;;;;;33.42;20.33;;;4.60;1.00;;;;;;4977681;28;20180;-61
2020/12/06 05:00:00;;;;;;;29.20;17.90;;;4.70;1.00;;;;;;4977077;28;20242;-57
2020/12/06 05:02:27;;;;;;;27.92;16.58;;;4.50;1.00;;;;;;4976785;28;20195;-61
2020/12/06 05:04:59;;;;;;;27.73;18.50;;;4.30;1.00;;;;;;4976587;28;20184;-61
2020/12/06 05:07:27;;;;;;;31.80;19.15;;;4.50;1.00;;;;;;4976854;28;20186;-61
2020/12/06 05:09:52;;;;;;;30.75;19.42;;;4.80;1.00;;;;;;4976876;28;20191;-61
2020/12/06 05:12:18;;;;;;;29.23;19.00;;;4.60;1.00;;;;;;4976771;28;20554;-61
2020/12/06 05:14:43;;;;;;;29.47;17.17;;;4.50;1.00;;;;;;4976294;28;20184;-60
2020/12/06 05:17:10;;;;;;;26.73;17.90;;;4.50;1.00;;;;;;4976853;28;20204;-57
2020/12/06 05:19:35;;;;;;;27.38;18.13;;;4.90;1.00;;;;;;4976741;28;20214;-57
2020/12/06 05:22:01;;;;;;;28.00;17.87;;;4.90;1.00;;;;;;4977237;28;20188;-60
2020/12/06 05:24:29;;;;;;;29.90;17.70;;;4.80;1.00;;;;;;4976210;28;20187;-61
2020/12/06 05:26:54;;;;;;;27.52;17.60;;;5.00;1.00;;;;;;4976283;28;20276;-61
2020/12/06 05:29:20;;;;;;;27.23;18.07;;;4.90;1.00;;;;;;4976235;28;20207;-61
2020/12/06 05:31:46;;;;;;;29.47;18.50;;;4.80;1.00;;;;;;4976146;28;20212;-61
2020/12/06 05:34:12;;;;;;;25.42;18.42;;;5.10;1.00;;;;;;4974974;28;20188;-57
2020/12/06 05:36:43;;;;;;;35.13;18.87;;;5.30;1.00;;;;;;4976131;28;20199;-61
2020/12/06 05:39:10;;;;;;;30.02;18.85;;;5.60;1.00;;;;;;4975875;28;20258;-61
2020/12/06 05:41:36;;;;;;;28.45;18.25;;;5.60;99.90;;;;;;4975867;28;20319;-61
2020/12/06 05:44:04;;;;;;;29.83;19.60;;;5.50;99.90;;;;;;4975613;28;20274;-61
2020/12/06 05:46:35;;;;;;;30.02;19.38;;;5.40;99.90;;;;;;4975898;28;20180;-58
2020/12/06 05:49:05;;;;;;;27.88;17.25;;;5.30;99.90;;;;;;4975141;28;20188;-57
2020/12/06 05:51:30;;;;;;;27.92;16.85;;;5.30;99.90;;;;;;4975727;28;20211;-61
2020/12/06 05:53:57;;;;;;;27.70;18.47;;;5.10;99.90;;;;;;4975618;28;20198;-60
2020/12/06 05:56:22;;;;;;;33.08;18.75;;;5.30;99.90;;;;;;4975143;28;20188;-60
2020/12/06 05:58:49;;;;;;;26.93;17.30;;;4.90;99.90;;;;;;4975528;28;20522;-60
2020/12/06 06:01:16;;;;;;;27.25;16.50;;;4.80;1.00;;;;;;4975450;28;20199;-60
2020/12/06 06:03:53;;;;;;;28.77;19.40;;;4.60;1.00;;;;;;4974203;28;20188;-61
2020/12/06 06:06:45;;;;;;;28.58;18.00;;;4.80;1.00;;;;;;4975702;28;20194;-61
2020/12/06 06:09:12;;;;;;;33.92;19.80;;;4.90;1.00;;;;;;4972262;28;20231;-61
2020/12/06 06:11:39;;;;;;;28.77;17.98;;;5.10;1.00;;;;;;4975517;28;20212;-61
2020/12/06 06:14:11;;;;;;;26.45;17.63;;;5.20;1.00;;;;;;4975494;28;20601;-59
2020/12/06 06:16:36;;;;;;;27.45;18.10;;;5.30;1.00;;;;;;4975622;28;20180;-59
2020/12/06 06:19:04;;;;;;;34.70;20.60;;;5.30;1.00;;;;;;4975419;28;20262;-61
2020/12/06 06:21:36;;;;;;;30.65;20.15;;;5.20;1.00;;;;;;4975349;28;20199;-61
2020/12/06 06:24:08;;;;;;;29.23;18.20;;;5.60;1.00;;;;;;4975275;28;20520;-61
2020/12/06 06:26:36;;;;;;;29.52;17.83;;;5.70;99.90;;;;;;4975336;28;20187;-62
2020/12/06 06:29:13;;;;;;;29.27;16.42;;;5.20;99.90;;;;;;4975187;28;20278;-58
2020/12/06 06:31:40;;;;;;;30.13;18.40;;;4.90;1.00;;;;;;4975191;28;20199;-58
2020/12/06 06:34:06;;;;;;;29.25;17.52;;;4.90;1.00;;;;;;4974896;28;20184;-61
2020/12/06 06:36:34;;;;;;;32.60;19.20;;;4.90;1.00;;;;;;4975160;28;20270;-63
2020/12/06 06:39:01;;;;;;;27.05;18.00;;;5.10;1.00;;;;;;4975185;28;20190;-57
2020/12/06 06:41:27;;;;;;;29.58;18.17;;;5.30;1.00;;;;;;4975071;28;20636;-59
2020/12/06 06:43:59;;;;;;;27.77;17.60;;;5.20;1.00;;;;;;4975169;28;20191;-61
2020/12/06 06:46:34;;;;;;;24.33;17.50;;;5.30;1.00;;;;;;4975326;28;20439;-61
2020/12/06 06:49:11;;;;;;;27.70;17.80;;;5.30;1.00;;;;;;4975346;28;20234;-61
2020/12/06 06:51:37;;;;;;;28.35;17.92;;;5.30;1.00;;;;;;4975155;28;20517;-61
2020/12/06 06:54:08;;;;;;;29.77;18.10;;;5.70;1.00;;;;;;4974639;28;20184;-61
2020/12/06 06:56:49;;;;;;;27.38;17.80;;;5.60;1.00;;;;;;4975019;28;20880;-60
2020/12/06 06:59:15;;;;;;;28.85;17.67;;;5.80;99.90;;;;;;4975377;28;20207;-59
2020/12/06 07:01:51;;;;;;;26.30;17.40;;;5.90;99.90;;;;;;4974902;28;20187;-58
2020/12/06 07:04:19;;;;;;;31.60;20.08;;;6.20;99.90;;;;;;4974653;28;20183;-58
2020/12/06 07:06:51;;;;;;;29.95;18.13;;;5.90;99.90;;;;;;4974794;28;20179;-58
2020/12/06 07:09:31;;;;;;;28.73;17.67;;;5.50;99.90;;;;;;4977964;28;20184;-58
2020/12/06 07:12:00;;;;;;;29.30;18.52;;;5.50;1.00;;;;;;4977614;28;20212;-58
2020/12/06 07:14:28;;;;;;;28.35;17.30;;;5.70;1.00;;;;;;4978165;28;20518;-58
2020/12/06 07:16:55;;;;;;;31.00;18.85;;;6.00;1.00;;;;;;4978299;28;20187;-58
2020/12/06 07:19:21;;;;;;;31.50;19.42;;;6.20;99.90;;;;;;4977577;28;20641;-59
2020/12/06 07:21:48;;;;;;;31.07;19.53;;;6.20;99.90;;;;;;4978397;28;20180;-59
2020/12/06 07:24:15;;;;;;;29.80;18.55;;;6.30;99.90;;;;;;4977926;28;20179;-59
2020/12/06 07:26:42;;;;;;;26.77;18.02;;;6.50;99.90;;;;;;4977734;28;20201;-59
2020/12/06 07:29:08;;;;;;;28.92;19.17;;;6.40;99.90;;;;;;4977704;28;20267;-62
2020/12/06 07:31:33;;;;;;;28.73;18.17;;;6.50;99.90;;;;;;4978021;28;20412;-62
2020/12/06 07:34:01;;;;;;;30.13;19.30;;;6.30;30.50;;;;;;4977775;28;20373;-62
2020/12/06 07:36:33;;;;;;;30.25;18.33;;;6.10;99.90;;;;;;4978136;28;20186;-63
2020/12/06 07:38:59;;;;;;;32.08;18.15;;;5.70;99.90;;;;;;4978097;28;20220;-63
2020/12/06 07:41:25;;;;;;;30.42;18.08;;;5.60;1.00;;;;;;4977917;28;20184;-62
2020/12/06 07:43:54;;;;;;;29.30;19.00;;;5.40;1.00;;;;;;4977484;28;20184;-59
2020/12/06 07:46:21;;;;;;;26.30;15.68;;;5.50;1.00;;;;;;4978000;28;20192;-62
2020/12/06 07:48:48;;;;;;;31.02;19.55;;;5.50;1.00;;;;;;4978120;28;20183;-59
2020/12/06 07:51:25;;;;;;;29.48;18.92;;;5.90;1.00;;;;;;4977872;28;20600;-58
2020/12/06 07:53:51;;;;;;;25.95;18.42;;;6.20;1.00;;;;;;4977656;28;20188;-58
2020/12/06 07:56:22;;;;;;;30.77;17.83;;;6.00;1.00;;;;;;4977716;28;20568;-58
2020/12/06 07:58:59;;;;;;;30.10;19.35;;;6.10;1.00;;;;;;4977779;28;20589;-58
2020/12/06 08:01:26;;;;;;;30.40;18.80;;;6.10;1.00;;;;;;4978394;28;20489;-62
2020/12/06 08:03:55;;;;;;;29.05;17.35;;;6.30;1.00;;;;;;4977407;28;20597;-62
2020/12/06 08:06:24;;;;;;;33.63;21.60;;;6.10;1.00;;;;;;4979376;28;20614;-61
2020/12/06 08:08:54;;;;;;;27.98;17.75;;;6.10;1.00;;;;;;4968802;28;20215;-59
2020/12/06 08:11:20;;;;;;;27.00;17.92;;;6.00;1.00;;;;;;4977610;28;20703;-59
2020/12/06 08:13:52;;;;;;;29.00;18.00;;;6.30;1.00;;;;;;4977508;28;20199;-62
2020/12/06 08:16:18;;;;;;;26.90;18.02;;;6.60;1.00;;;;;;4975607;28;20176;-58
2020/12/06 08:18:44;;;;;;;29.70;18.30;;;6.80;99.90;;;;;;4975506;28;20233;-57
2020/12/06 08:21:10;;;;;;;28.60;18.88;;;6.70;99.90;;;;;;4975485;28;20298;-61
2020/12/06 08:23:37;;;;;;;28.27;18.67;;;6.80;99.90;;;;;;4977022;28;20259;-58
2020/12/06 08:26:04;;;;;;;32.45;19.67;;;7.00;99.90;;;;;;4977183;28;20632;-59
2020/12/06 08:28:29;;;;;;;30.45;17.23;;;7.20;99.90;;;;;;4977447;28;20188;-59
2020/12/06 08:30:56;;;;;;;31.93;20.00;;;7.10;1.00;;;;;;4977640;28;20323;-61
2020/12/06 08:33:26;;;;;;;48.15;28.10;;;7.30;15.50;;;;;;4977606;28;20756;-61
2020/12/06 08:36:01;;;;;;;31.63;17.92;;;7.50;1.00;;;;;;4977017;28;20177;-61
2020/12/06 08:38:29;;;;;;;30.60;18.35;;;7.40;1.00;;;;;;4977261;28;20168;-59
2020/12/06 08:41:10;;;;;;;28.98;17.38;;;7.20;1.00;;;;;;4976942;28;20181;-59
2020/12/06 08:43:45;;;;;;;28.42;17.77;;;7.10;1.00;;;;;;4976662;28;20180;-59
2020/12/06 08:46:12;;;;;;;31.60;19.70;;;6.50;99.90;;;;;;4976746;28;20179;-59
2020/12/06 08:48:38;;;;;;;34.80;20.20;;;6.40;99.90;;;;;;4976700;28;20180;-59
2020/12/06 08:51:04;;;;;;;32.27;19.50;;;6.50;1.00;;;;;;4971801;28;20279;-59
2020/12/06 08:53:43;;;;;;;33.20;19.97;;;6.40;1.00;;;;;;4976075;28;20863;-61
2020/12/06 08:56:28;;;;;;;33.00;18.70;;;6.30;1.00;;;;;;4976596;28;20200;-59
2020/12/06 08:58:55;;;;;;;30.92;20.20;;;6.50;1.00;;;;;;4976694;28;20192;-58
2020/12/06 09:01:20;;;;;;;35.20;20.02;;;6.60;1.00;;;;;;4975696;28;20188;-62
2020/12/06 09:03:46;;;;;;;30.17;21.30;;;6.40;1.00;;;;;;4976473;28;20176;-57
2020/12/06 09:06:18;;;;;;;31.30;19.03;;;6.50;1.00;;;;;;4976545;28;20179;-58
2020/12/06 09:08:44;;;;;;;37.22;18.23;;;6.90;1.00;;;;;;4976518;28;20203;-57
2020/12/06 09:11:21;;;;;;;32.53;18.38;;;7.20;1.00;;;;;;4976253;28;20195;-57
2020/12/06 09:13:47;;;;;;;27.98;18.38;;;7.30;99.90;;;;;;4976413;28;20194;-58
2020/12/06 09:16:13;;;;;;;30.73;18.20;;;7.50;99.90;;;;;;4976160;28;20183;-58
2020/12/06 09:18:39;;;;;;;29.25;19.60;;;7.50;99.90;;;;;;4976079;28;20183;-58
2020/12/06 09:21:09;;;;;;;35.58;19.50;;;7.70;94.70;;;;;;4976309;28;20180;-63
2020/12/06 09:23:36;;;;;;;35.75;21.10;;;7.50;1.00;;;;;;4976155;28;20182;-61
2020/12/06 09:26:02;;;;;;;30.73;18.70;;;7.60;99.90;;;;;;4976334;28;20180;-63
2020/12/06 09:28:28;;;;;;;27.52;17.13;;;7.60;22.80;;;;;;4958936;28;20315;-59
2020/12/06 09:30:54;;;;;;;27.80;18.90;;;7.70;87.80;;;;;;4972022;28;20202;-59
2020/12/06 09:33:20;;;;;;;31.52;18.58;;;7.40;1.00;;;;;;4969677;28;20291;-60
2020/12/06 09:35:45;;;;;;;32.38;19.80;;;7.70;99.30;;;;;;4964920;28;20266;-59
2020/12/06 09:38:11;;;;;;;31.47;19.37;;;8.00;92.90;;;;;;4975400;28;20278;-60
2020/12/06 09:40:37;;;;;;;34.43;20.23;;;7.80;1.00;;;;;;4956597;28;20263;-60
2020/12/06 09:43:02;;;;;;;35.70;22.00;;;7.70;1.00;;;;;;4975756;28;20242;-61
2020/12/06 09:45:28;;;;;;;31.50;19.27;;;7.70;1.00;;;;;;4975661;28;20483;-62
2020/12/06 09:47:53;;;;;;;31.90;20.97;;;7.80;1.00;;;;;;4974566;28;20191;-61
2020/12/06 09:50:19;;;;;;;33.80;20.57;;;8.00;1.00;;;;;;4975341;28;20253;-62
2020/12/06 09:52:44;;;;;;;33.53;21.10;;;8.00;1.00;;;;;;4975398;28;20219;-61
2020/12/06 09:55:10;;;;;;;28.43;18.53;;;8.00;1.00;;;;;;4975183;28;20259;-61
2020/12/06 09:57:35;;;;;;;28.20;19.87;;;7.70;99.90;;;;;;4975236;28;20503;-63
2020/12/06 10:00:01;;;;;;;29.53;17.90;;;7.30;1.00;;;;;;4975247;28;20210;-59
2020/12/06 10:02:26;;;;;;;30.77;18.07;;;7.00;99.90;;;;;;4974156;28;20253;-62
2020/12/06 10:04:52;;;;;;;30.93;19.03;;;7.30;99.90;;;;;;4975101;28;20286;-63
2020/12/06 10:07:20;;;;;;;38.73;23.53;;;7.40;99.90;;;;;;4975011;28;20513;-59
2020/12/06 10:09:46;;;;;;;40.38;22.65;;;7.60;99.90;;;;;;4975084;28;20249;-61
2020/12/06 10:12:12;;;;;;;30.70;20.67;;;7.60;62.30;;;;;;4975332;28;20215;-61
2020/12/06 10:14:37;;;;;;;34.30;21.03;;;7.40;72.20;;;;;;4975065;28;20854;-61
2020/12/06 10:17:03;;;;;;;33.90;20.70;;;7.30;99.90;;;;;;4974621;28;20190;-62
2020/12/06 10:19:28;;;;;;;29.83;18.40;;;7.30;99.90;;;;;;4975303;28;20296;-61
2020/12/06 10:21:54;;;;;;;30.77;19.37;;;7.60;99.90;;;;;;4975397;28;20180;-63
2020/12/06 10:24:19;;;;;;;36.77;19.90;;;8.20;99.90;;;;;;4974956;28;20192;-66
2020/12/06 10:26:53;;;;;;;30.63;20.40;;;8.00;1.00;;;;;;4974081;28;20262;-65
2020/12/06 10:29:19;;;;;;;36.13;21.00;;;8.00;1.00;;;;;;4975197;28;20188;-65
2020/12/06 10:31:48;;;;;;;27.40;19.10;;;8.00;99.90;;;;;;4975134;28;20215;-65
2020/12/06 10:34:13;;;;;;;31.75;20.02;;;8.40;1.00;;;;;;4974656;28;20184;-65
2020/12/06 10:36:39;;;;;;;31.60;20.10;;;8.30;99.90;;;;;;4975371;28;20287;-62
2020/12/06 10:39:04;;;;;;;31.43;21.07;;;8.40;99.90;;;;;;4975128;28;20202;-64
2020/12/06 10:41:30;;;;;;;52.87;32.77;;;8.50;3.10;;;;;;4975412;28;20191;-64
2020/12/06 10:43:55;;;;;;;33.20;20.27;;;8.40;1.00;;;;;;4974442;28;20215;-63
2020/12/06 10:46:27;;;;;;;29.23;20.73;;;8.60;99.90;;;;;;4974966;28;20262;-65
2020/12/06 10:48:53;;;;;;;29.83;18.50;;;8.80;99.90;;;;;;4975586;28;20188;-60
2020/12/06 10:51:19;;;;;;;27.83;19.27;;;8.30;1.00;;;;;;4975393;28;20204;-63
2020/12/06 10:53:44;;;;;;;31.23;18.83;;;8.20;1.00;;;;;;4974666;28;20899;-61
2020/12/06 10:56:10;;;;;;;24.67;17.77;;;8.10;99.90;;;;;;4974943;28;20636;-63
2020/12/06 10:58:36;;;;;;;29.37;18.77;;;7.90;1.00;;;;;;4974787;28;20196;-60
2020/12/06 11:01:02;;;;;;;33.93;20.53;;;8.30;99.90;;;;;;4973893;28;20867;-64
2020/12/06 11:03:27;;;;;;;29.63;19.57;;;8.20;1.00;;;;;;4974760;28;20180;-66
2020/12/06 11:05:53;;;;;;;30.87;18.70;;;7.90;1.00;;;;;;4974872;28;20176;-66
2020/12/06 11:08:18;;;;;;;30.10;19.17;;;7.70;99.90;;;;;;4973708;28;20176;-66
2020/12/06 11:10:45;;;;;;;30.43;18.27;;;8.00;1.00;;;;;;4971307;28;20518;-66
2020/12/06 11:13:11;;;;;;;31.20;19.45;;;8.20;1.00;;;;;;4974434;28;20223;-59
2020/12/06 11:15:36;;;;;;;34.00;21.20;;;8.30;1.00;;;;;;4974699;28;20184;-65
2020/12/06 11:18:02;;;;;;;32.13;21.30;;;8.00;28.80;;;;;;4974888;28;20179;-62
2020/12/06 11:20:27;;;;;;;35.47;21.37;;;8.20;99.90;;;;;;4974594;28;20226;-62
2020/12/06 11:22:52;;;;;;;32.80;19.57;;;8.30;99.90;;;;;;4974700;28;20187;-64
2020/12/06 11:25:18;;;;;;;32.40;20.10;;;8.10;3.10;;;;;;4973706;28;20568;-65
2020/12/06 11:27:44;;;;;;;36.60;21.00;;;8.10;99.90;;;;;;4965213;28;20270;-60
2020/12/06 11:30:09;;;;;;;32.17;20.20;;;8.20;99.90;;;;;;4973946;28;20274;-64
2020/12/06 11:32:35;;;;;;;27.60;19.80;;;8.10;1.00;;;;;;4974603;28;20287;-60
2020/12/06 11:35:00;;;;;;;30.13;19.03;;;7.70;1.00;;;;;;4974278;28;20626;-59
2020/12/06 11:37:26;;;;;;;29.00;19.30;;;7.40;1.00;;;;;;4974770;28;20509;-61
2020/12/06 11:39:51;;;;;;;30.73;22.10;;;7.20;99.90;;;;;;4974491;28;20188;-61
2020/12/06 11:42:17;;;;;;;33.07;19.70;;;7.40;1.00;;;;;;4974415;28;20638;-62
2020/12/06 11:44:42;;;;;;;32.90;20.10;;;7.20;1.00;;;;;;4974244;28;20649;-63
2020/12/06 11:47:08;;;;;;;34.90;19.97;;;7.20;1.00;;;;;;4969716;28;20616;-62
2020/12/06 11:49:33;;;;;;;33.43;20.10;;;7.20;1.00;;;;;;4971606;28;20188;-66
2020/12/06 11:51:59;;;;;;;34.60;20.90;;;7.20;1.00;;;;;;4973971;28;20778;-66
2020/12/06 11:54:25;;;;;;;56.73;34.30;;;7.50;26.90;;;;;;4973475;28;20318;-60
2020/12/06 11:56:50;;;;;;;36.80;22.20;;;7.50;1.00;;;;;;4977922;28;20319;-61
2020/12/06 11:59:17;;;;;;;35.43;21.43;;;7.40;1.00;;;;;;4973355;28;20231;-61
2020/12/06 12:01:43;;;;;;;33.90;21.33;;;7.10;1.00;;;;;;4972186;28;20270;-60
2020/12/06 12:04:08;;;;;;;33.70;21.17;;;6.90;99.90;;;;;;4975118;28;20199;-62
2020/12/06 12:06:34;;;;;;;31.47;21.63;;;7.20;99.90;;;;;;4976532;28;20191;-62
2020/12/06 12:08:59;;;;;;;31.20;19.50;;;7.30;99.90;;;;;;4977648;28;20684;-62
2020/12/06 12:11:25;;;;;;;29.10;19.53;;;7.50;99.90;;;;;;4977613;28;20215;-62
2020/12/06 12:13:51;;;;;;;37.10;21.88;;;7.40;1.00;;;;;;4975740;28;20180;-62
2020/12/06 12:16:16;;;;;;;33.90;22.10;;;7.20;95.70;;;;;;4968498;28;20204;-62
2020/12/06 12:18:43;;;;;;;39.17;23.17;;;7.40;99.90;;;;;;4975298;28;20547;-62
2020/12/06 12:21:08;;;;;;;32.67;21.73;;;7.60;4.00;;;;;;4976127;28;20192;-62
2020/12/06 12:23:34;;;;;;;30.97;19.30;;;7.40;1.00;;;;;;4977317;28;20282;-62
2020/12/06 12:25:59;;;;;;;28.33;20.83;;;7.50;1.00;;;;;;4977531;28;20212;-62
2020/12/06 12:28:25;;;;;;;33.13;21.23;;;7.70;1.00;;;;;;4977597;28;20176;-62
2020/12/06 12:30:50;;;;;;;31.23;20.00;;;7.70;1.00;;;;;;4972862;28;20585;-62
2020/12/06 12:33:16;;;;;;;31.97;20.17;;;7.80;99.90;;;;;;4969230;28;20266;-63
2020/12/06 12:35:41;;;;;;;35.10;23.97;;;7.80;99.90;;;;;;4975202;28;20199;-62
2020/12/06 12:38:07;;;;;;;33.07;21.67;;;7.60;99.90;;;;;;4977311;28;20243;-62
2020/12/06 12:40:32;;;;;;;34.00;21.67;;;7.50;99.90;;;;;;4977123;28;20235;-61
2020/12/06 12:42:58;;;;;;;28.20;20.03;;;7.60;1.00;;;;;;4977789;28;20176;-60